Time;durP1;ratioP1;P1;durP2;ratioP2;P2;SDS_P1;SDS_P2;PMS_P1;PMS_P2;Temp;Humidity;BMP_temperature;BMP_pressure;BME280_temperature;BME280_humidity;BME280_pressure;Samples;Min_cycle;Max_cycle;Signal;HPM_P1;HPM_P2
2022/06/21 00:00:39;;;;;;;6.43;1.55;;;10.30;99.90;;;;;;5063189;28;20032;-65
2022/06/21 00:03:08;;;;;;;4.60;1.13;;;10.30;99.90;;;;;;5084344;28;20054;-65
2022/06/21 00:05:37;;;;;;;4.22;1.13;;;10.20;99.90;;;;;;5083951;28;20040;-65
2022/06/21 00:08:06;;;;;;;6.13;1.92;;;10.30;99.90;;;;;;5069657;28;20044;-65
2022/06/21 00:10:34;;;;;;;11.40;2.20;;;10.30;99.90;;;;;;5065511;28;20047;-65
2022/06/21 00:13:07;;;;;;;6.90;1.88;;;10.30;99.90;;;;;;5083368;28;20047;-65
2022/06/21 00:15:32;;;;;;;5.72;1.67;;;10.40;99.90;;;;;;5067842;28;20036;-65
2022/06/21 00:17:58;;;;;;;5.10;1.13;;;10.50;99.90;;;;;;5066066;28;20036;-65
2022/06/21 00:20:25;;;;;;;6.53;1.58;;;10.50;99.90;;;;;;5083273;28;20410;-65
2022/06/21 00:22:51;;;;;;;6.78;1.98;;;10.60;99.90;;;;;;5071193;28;20101;-65
2022/06/21 00:25:20;;;;;;;3.30;1.08;;;10.50;99.90;;;;;;5084957;28;20115;-65
2022/06/21 00:27:46;;;;;;;5.57;1.65;;;10.50;99.90;;;;;;5068485;28;20045;-65
2022/06/21 00:30:12;;;;;;;4.70;1.42;;;10.40;99.90;;;;;;5082454;28;20052;-65
2022/06/21 00:32:38;;;;;;;4.55;1.73;;;10.40;99.90;;;;;;5073412;28;20096;-65
2022/06/21 00:35:09;;;;;;;7.90;1.35;;;10.40;99.90;;;;;;5081524;28;20024;-65
2022/06/21 00:37:35;;;;;;;3.33;0.98;;;10.30;99.90;;;;;;5071958;28;20036;-65
2022/06/21 00:40:00;;;;;;;2.75;0.50;;;10.20;99.90;;;;;;5084529;28;20451;-65
2022/06/21 00:42:30;;;;;;;5.93;0.90;;;10.10;99.90;;;;;;5066343;28;20035;-65
2022/06/21 00:45:05;;;;;;;1.92;0.90;;;10.00;99.90;;;;;;5082736;28;20070;-65
2022/06/21 00:47:45;;;;;;;4.05;1.02;;;10.00;99.90;;;;;;5079908;28;20040;-65
2022/06/21 00:50:25;;;;;;;4.30;0.90;;;9.90;99.90;;;;;;5064887;28;20075;-65
2022/06/21 00:53:00;;;;;;;6.53;1.73;;;9.90;99.90;;;;;;5067588;28;20044;-65
2022/06/21 00:55:34;;;;;;;5.88;1.70;;;10.00;99.90;;;;;;5083299;28;20044;-65
2022/06/21 00:58:01;;;;;;;6.43;1.52;;;10.10;99.90;;;;;;5061271;28;20170;-65
2022/06/21 01:00:37;;;;;;;6.63;1.70;;;10.10;99.90;;;;;;5067342;28;20625;-65
2022/06/21 01:03:15;;;;;;;6.00;1.40;;;10.20;99.90;;;;;;5066041;28;20398;-65
2022/06/21 01:05:45;;;;;;;2.85;1.02;;;10.20;99.90;;;;;;5065809;28;20529;-65
2022/06/21 01:08:17;;;;;;;5.40;1.40;;;10.10;99.90;;;;;;5085608;28;20389;-65
2022/06/21 01:10:47;;;;;;;7.90;1.42;;;10.10;99.90;;;;;;5079076;28;20083;-65
2022/06/21 01:13:17;;;;;;;3.78;1.10;;;10.10;99.90;;;;;;5068082;28;20040;-65
2022/06/21 01:15:46;;;;;;;6.13;1.23;;;10.10;99.90;;;;;;5068012;28;20051;-65
2022/06/21 01:18:15;;;;;;;2.65;0.73;;;10.00;99.90;;;;;;5066303;28;20044;-65
2022/06/21 01:20:46;;;;;;;0.88;0.50;;;9.90;99.90;;;;;;5066800;28;20131;-65
2022/06/21 01:23:36;;;;;;;0.68;0.38;;;9.70;99.90;;;;;;5064648;28;20127;-65
2022/06/21 01:26:39;;;;;;;2.13;0.90;;;9.60;99.90;;;;;;5084309;28;20066;-65
2022/06/21 01:29:10;;;;;;;3.38;1.00;;;9.50;99.90;;;;;;5066345;28;20048;-65
2022/06/21 01:31:36;;;;;;;3.08;1.05;;;9.50;99.90;;;;;;5082781;28;20401;-65
2022/06/21 01:34:01;;;;;;;2.80;1.00;;;9.30;99.90;;;;;;5054068;28;20039;-65
2022/06/21 01:36:32;;;;;;;3.03;1.02;;;9.30;99.90;;;;;;5069543;28;20382;-65
2022/06/21 01:39:07;;;;;;;3.00;1.00;;;9.10;99.90;;;;;;5082920;28;20037;-65
2022/06/21 01:41:45;;;;;;;5.60;1.20;;;9.10;99.90;;;;;;5080549;28;20033;-65
2022/06/21 01:44:16;;;;;;;3.05;1.08;;;9.00;99.90;;;;;;5067086;28;20070;-65
2022/06/21 01:46:41;;;;;;;3.55;1.38;;;9.10;99.90;;;;;;5070684;28;20044;-65
2022/06/21 01:49:12;;;;;;;4.68;1.65;;;9.10;99.90;;;;;;5082760;28;20051;-65
2022/06/21 01:52:01;;;;;;;3.83;1.48;;;9.20;99.90;;;;;;5064687;28;20043;-65
2022/06/21 01:54:33;;;;;;;2.00;0.90;;;9.40;99.90;;;;;;5084239;28;20154;-65
2022/06/21 01:56:59;;;;;;;2.15;0.90;;;9.50;99.90;;;;;;5066335;28;20316;-65
2022/06/21 01:59:29;;;;;;;5.78;1.48;;;9.60;99.90;;;;;;5064093;28;20113;-65
2022/06/21 02:02:04;;;;;;;4.45;1.50;;;9.70;99.90;;;;;;5046610;28;20127;-65
2022/06/21 02:04:35;;;;;;;2.47;1.02;;;9.70;99.90;;;;;;5065510;28;20047;-65
2022/06/21 02:07:10;;;;;;;5.50;1.95;;;9.80;99.90;;;;;;5084500;28;20032;-65
2022/06/21 02:09:42;;;;;;;3.00;1.27;;;9.80;99.90;;;;;;5084286;28;20394;-65
2022/06/21 02:12:12;;;;;;;2.63;1.13;;;9.90;99.90;;;;;;5069527;28;20160;-65
2022/06/21 02:14:45;;;;;;;2.13;1.20;;;9.80;99.90;;;;;;5080752;28;20032;-65
2022/06/21 02:17:21;;;;;;;2.80;1.05;;;9.90;99.90;;;;;;5083184;28;20367;-65
2022/06/21 02:20:01;;;;;;;1.60;1.05;;;9.90;99.90;;;;;;5081168;28;20482;-65
2022/06/21 02:22:29;;;;;;;0.80;0.75;;;9.90;99.90;;;;;;5067425;28;20055;-65
2022/06/21 02:24:55;;;;;;;1.40;0.70;;;9.90;99.90;;;;;;5082586;28;20037;-65
2022/06/21 02:27:25;;;;;;;2.58;1.10;;;9.80;99.90;;;;;;5065109;28;20518;-65
2022/06/21 02:29:53;;;;;;;0.77;0.40;;;9.70;99.90;;;;;;5065097;28;20059;-66
2022/06/21 02:32:30;;;;;;;11.77;1.50;;;9.60;99.90;;;;;;5082244;28;20040;-65
2022/06/21 02:35:03;;;;;;;1.83;1.52;;;9.50;99.90;;;;;;5085485;28;20063;-65
2022/06/21 02:37:30;;;;;;;2.63;0.80;;;9.40;99.90;;;;;;5068539;28;20036;-66
2022/06/21 02:40:00;;;;;;;2.03;1.00;;;9.20;99.90;;;;;;5067619;28;20045;-65
2022/06/21 02:42:32;;;;;;;2.15;1.27;;;9.10;99.90;;;;;;5065602;28;20491;-65
2022/06/21 02:45:06;;;;;;;1.45;1.00;;;9.10;99.90;;;;;;5082973;28;20431;-66
2022/06/21 02:47:40;;;;;;;1.63;0.80;;;9.00;99.90;;;;;;5083203;28;20047;-65
2022/06/21 02:50:22;;;;;;;0.77;0.73;;;9.00;99.90;;;;;;5080116;28;20495;-66
2022/06/21 02:52:50;;;;;;;1.65;0.80;;;9.00;99.90;;;;;;5064507;28;20048;-66
2022/06/21 02:55:29;;;;;;;2.58;0.85;;;9.00;99.90;;;;;;5077991;28;20780;-66
2022/06/21 02:58:13;;;;;;;1.42;0.90;;;9.00;99.90;;;;;;5078217;28;20048;-66
2022/06/21 03:00:42;;;;;;;1.17;0.65;;;9.00;99.90;;;;;;5063205;28;20036;-66
2022/06/21 03:03:15;;;;;;;2.20;1.45;;;8.80;99.90;;;;;;5051363;28;20036;-66
2022/06/21 03:05:41;;;;;;;2.05;1.77;;;8.90;99.90;;;;;;5066684;28;20039;-65
2022/06/21 03:08:07;;;;;;;3.17;1.77;;;8.90;99.90;;;;;;5084288;28;20036;-65
2022/06/21 03:10:40;;;;;;;4.60;1.92;;;9.00;99.90;;;;;;5065686;28;20048;-65
2022/06/21 03:13:22;;;;;;;3.13;2.10;;;9.10;99.90;;;;;;5064045;28;20041;-65
2022/06/21 03:15:56;;;;;;;7.72;2.05;;;9.10;99.90;;;;;;5065016;28;20209;-65
2022/06/21 03:18:30;;;;;;;3.40;2.30;;;9.20;99.90;;;;;;5080686;28;20533;-65
2022/06/21 03:20:56;;;;;;;4.75;1.92;;;9.20;99.90;;;;;;5079526;28;20040;-65
2022/06/21 03:23:22;;;;;;;2.00;1.80;;;9.30;99.90;;;;;;5067654;28;20165;-65
2022/06/21 03:25:57;;;;;;;1.75;1.15;;;9.30;99.90;;;;;;5080809;28;20040;-65
2022/06/21 03:28:35;;;;;;;1.33;1.17;;;9.40;99.90;;;;;;5065420;28;20071;-65
2022/06/21 03:31:29;;;;;;;1.70;1.60;;;9.40;99.90;;;;;;5081492;28;20043;-65
2022/06/21 03:34:01;;;;;;;1.52;1.42;;;9.40;99.90;;;;;;5080757;28;20090;-65
2022/06/21 03:36:28;;;;;;;1.33;1.20;;;9.40;99.90;;;;;;5080706;28;20042;-65
2022/06/21 03:39:07;;;;;;;3.60;1.50;;;9.60;99.90;;;;;;5077755;28;20032;-66
2022/06/21 03:41:43;;;;;;;1.50;1.40;;;9.50;99.90;;;;;;5080039;28;20050;-65
2022/06/21 03:44:28;;;;;;;1.15;1.00;;;9.50;99.90;;;;;;5081485;28;20424;-65
2022/06/21 03:47:00;;;;;;;1.45;1.35;;;9.50;99.90;;;;;;5082156;28;20055;-65
2022/06/21 03:49:45;;;;;;;1.92;1.25;;;9.60;99.90;;;;;;5080670;28;20482;-66
2022/06/21 03:52:41;;;;;;;1.48;1.10;;;9.60;99.90;;;;;;5079935;28;20348;-65
2022/06/21 03:55:13;;;;;;;2.03;1.10;;;9.70;99.90;;;;;;5082357;28;20051;-66
2022/06/21 03:57:55;;;;;;;1.88;1.00;;;9.70;99.90;;;;;;5083351;28;20040;-66
2022/06/21 04:00:21;;;;;;;5.97;1.00;;;9.70;99.90;;;;;;5081281;28;20028;-66
2022/06/21 04:03:04;;;;;;;2.25;1.15;;;9.80;99.90;;;;;;5078697;28;20036;-66
2022/06/21 04:05:37;;;;;;;1.38;1.27;;;9.90;99.90;;;;;;5079413;28;20387;-65
2022/06/21 04:08:22;;;;;;;2.13;0.82;;;9.90;99.90;;;;;;5065058;28;20047;-65
2022/06/21 04:11:16;;;;;;;5.30;1.27;;;10.70;99.90;;;;;;5080267;28;20048;-65
2022/06/21 04:13:49;;;;;;;2.20;1.30;;;11.00;99.90;;;;;;5079104;28;20656;-65
2022/06/21 04:16:17;;;;;;;1.65;1.05;;;10.90;99.90;;;;;;5063088;28;20040;-65
2022/06/21 04:19:02;;;;;;;0.90;0.73;;;10.80;99.90;;;;;;5066066;28;20127;-65
2022/06/21 04:21:42;;;;;;;1.63;0.60;;;10.70;99.90;;;;;;5065647;28;20084;-65
2022/06/21 04:24:25;;;;;;;2.28;1.00;;;10.60;99.90;;;;;;5079959;28;20493;-65
2022/06/21 04:27:29;;;;;;;3.58;1.63;;;10.70;99.90;;;;;;5077304;28;20044;-66
2022/06/21 04:30:23;;;;;;;3.00;2.53;;;10.90;99.90;;;;;;5061869;28;21905;-66
2022/06/21 04:32:59;;;;;;;4.68;2.03;;;11.30;99.90;;;;;;5080523;28;20086;-66
2022/06/21 04:35:44;;;;;;;4.60;1.55;;;12.20;99.90;;;;;;5077736;28;20040;-66
2022/06/21 04:38:28;;;;;;;3.47;0.80;;;13.40;99.90;;;;;;5062226;28;20085;-66
2022/06/21 04:41:04;;;;;;;3.88;0.90;;;15.20;99.90;;;;;;5061624;28;20044;-66
2022/06/21 04:43:34;;;;;;;;;;;16.20;99.90;;;;;;5063240;28;20117;-66
2022/06/21 04:46:05;;;;;;;3.10;1.08;;;17.30;99.90;;;;;;5061585;28;19916;-66
2022/06/21 04:48:45;;;;;;;3.30;0.90;;;18.70;99.90;;;;;;5081713;28;20055;-66
2022/06/21 04:51:14;;;;;;;2.90;0.93;;;20.00;99.90;;;;;;5067104;28;20078;-66
2022/06/21 04:54:12;;;;;;;4.35;0.90;;;21.10;99.90;;;;;;5084396;28;20044;-66
2022/06/21 04:56:46;;;;;;;3.85;0.90;;;22.10;99.90;;;;;;5068024;28;20498;-66
2022/06/21 04:59:34;;;;;;;1.67;0.60;;;22.80;99.90;;;;;;5081210;28;20094;-66
2022/06/21 05:02:02;;;;;;;6.88;0.90;;;23.60;99.90;;;;;;5083895;28;20040;-66
2022/06/21 05:04:39;;;;;;;4.05;1.17;;;23.70;99.90;;;;;;5066409;28;20105;-66
2022/06/21 05:07:12;;;;;;;2.72;0.65;;;23.80;99.90;;;;;;5064941;28;20047;-66
2022/06/21 05:09:40;;;;;;;7.00;0.80;;;23.10;99.90;;;;;;5084714;28;20139;-67
2022/06/21 05:12:25;;;;;;;1.63;0.70;;;21.90;99.90;;;;;;5067326;28;20063;-66
2022/06/21 05:14:57;;;;;;;7.75;1.45;;;20.70;99.90;;;;;;5068569;28;20055;-66
2022/06/21 05:17:23;;;;;;;10.50;1.25;;;19.60;99.90;;;;;;5079277;28;20035;-66
2022/06/21 05:19:57;;;;;;;5.28;1.10;;;18.60;99.90;;;;;;5069767;28;20040;-67
2022/06/21 05:22:30;;;;;;;4.83;0.90;;;17.90;99.90;;;;;;5081553;28;21068;-66
2022/06/21 05:24:58;;;;;;;6.00;1.23;;;17.10;99.90;;;;;;5083169;28;20371;-66
2022/06/21 05:27:47;;;;;;;5.60;1.60;;;16.70;99.90;;;;;;5082950;28;20089;-66
2022/06/21 05:30:22;;;;;;;7.43;1.50;;;16.20;99.90;;;;;;5084148;28;20179;-66
2022/06/21 05:32:58;;;;;;;5.63;1.17;;;15.80;99.90;;;;;;5066754;28;20082;-66
2022/06/21 05:35:28;;;;;;;6.47;1.40;;;15.60;99.90;;;;;;5081859;28;20029;-66
2022/06/21 05:38:04;;;;;;;3.35;1.23;;;15.30;99.90;;;;;;5084064;28;20473;-66
2022/06/21 05:40:55;;;;;;;4.85;1.60;;;15.10;99.90;;;;;;5081324;28;20036;-66
2022/06/21 05:43:51;;;;;;;4.15;1.42;;;15.00;99.90;;;;;;5081020;28;20044;-66
2022/06/21 05:46:20;;;;;;;15.20;2.25;;;14.80;99.90;;;;;;5066847;28;20555;-66
2022/06/21 05:48:46;;;;;;;5.47;1.95;;;14.80;99.90;;;;;;5070334;28;20041;-66
2022/06/21 05:51:26;;;;;;;6.35;1.65;;;14.80;99.90;;;;;;5081156;28;20073;-66
2022/06/21 05:53:55;;;;;;;5.43;1.38;;;14.70;99.90;;;;;;5066391;28;20063;-66
2022/06/21 05:56:25;;;;;;;3.90;1.90;;;14.70;99.90;;;;;;5064752;28;20055;-66
2022/06/21 05:59:00;;;;;;;3.60;1.60;;;14.60;99.90;;;;;;5066525;28;20040;-66
2022/06/21 06:01:30;;;;;;;6.70;2.03;;;14.80;99.90;;;;;;5078502;28;20083;-66
2022/06/21 06:04:09;;;;;;;7.00;1.70;;;14.70;99.90;;;;;;5064436;28;20047;-67
2022/06/21 06:06:36;;;;;;;5.00;1.73;;;14.80;99.90;;;;;;5066916;28;20044;-67
2022/06/21 06:09:25;;;;;;;7.55;2.17;;;14.90;99.90;;;;;;5081683;28;20367;-66
2022/06/21 06:12:22;;;;;;;5.90;2.35;;;15.10;99.90;;;;;;5068439;28;20058;-67
2022/06/21 06:15:22;;;;;;;6.05;1.45;;;15.30;99.90;;;;;;5069192;28;20056;-67
2022/06/21 06:18:04;;;;;;;5.80;1.15;;;15.70;99.90;;;;;;5065915;28;20056;-67
2022/06/21 06:20:34;;;;;;;5.60;1.77;;;16.10;99.90;;;;;;5069919;28;20047;-67
2022/06/21 06:23:11;;;;;;;5.25;1.27;;;16.50;99.90;;;;;;5081429;28;20050;-67
2022/06/21 06:26:12;;;;;;;3.60;1.25;;;16.90;99.90;;;;;;5083192;28;20032;-67
2022/06/21 06:28:57;;;;;;;10.18;2.47;;;17.30;99.90;;;;;;5053700;28;20518;-67
2022/06/21 06:31:35;;;;;;;4.13;1.10;;;17.70;99.90;;;;;;5082018;28;20613;-67
2022/06/21 06:34:06;;;;;;;5.28;0.60;;;17.90;99.90;;;;;;5082526;28;20048;-67
2022/06/21 06:36:38;;;;;;;4.72;1.17;;;18.10;99.90;;;;;;5058787;28;21090;-67
2022/06/21 06:39:17;;;;;;;3.78;0.82;;;18.50;99.90;;;;;;5076148;28;20040;-67
2022/06/21 06:42:05;;;;;;;3.67;1.00;;;18.80;99.90;;;;;;5080256;28;20430;-67
2022/06/21 06:44:38;;;;;;;5.88;0.88;;;19.20;99.90;;;;;;5082002;28;20452;-67
2022/06/21 06:47:08;;;;;;;4.65;0.82;;;19.30;99.90;;;;;;5066301;28;20036;-67
2022/06/21 06:49:45;;;;;;;1.67;0.40;;;19.40;99.90;;;;;;5049536;28;20052;-67
2022/06/21 06:52:35;;;;;;;7.10;0.82;;;19.30;99.90;;;;;;5066272;28;20040;-67
2022/06/21 06:55:22;;;;;;;7.10;1.30;;;19.50;99.90;;;;;;5064718;28;20072;-67
2022/06/21 06:57:53;;;;;;;5.15;1.08;;;19.70;99.90;;;;;;5061906;28;20036;-67
2022/06/21 07:00:22;;;;;;;4.57;1.15;;;19.70;99.90;;;;;;5076487;28;20040;-67
2022/06/21 07:03:10;;;;;;;6.30;1.27;;;19.80;99.90;;;;;;5061575;28;20093;-67
2022/06/21 07:05:47;;;;;;;5.35;1.10;;;20.00;99.90;;;;;;5061562;28;20211;-67
2022/06/21 07:08:50;;;;;;;7.15;1.27;;;20.20;99.90;;;;;;5066873;28;20081;-67
2022/06/21 07:11:49;;;;;;;5.90;1.17;;;20.50;99.90;;;;;;5058319;28;20079;-67
2022/06/21 07:14:20;;;;;;;4.50;1.10;;;20.90;99.90;;;;;;5061321;28;20044;-67
2022/06/21 07:16:49;;;;;;;4.97;1.50;;;21.10;99.90;;;;;;5060234;28;20047;-67
2022/06/21 07:19:15;;;;;;;4.05;1.40;;;21.30;99.90;;;;;;5080960;28;20043;-67
2022/06/21 07:21:41;;;;;;;5.97;1.70;;;21.60;99.90;;;;;;5061930;28;20036;-67
2022/06/21 07:24:15;;;;;;;4.25;1.20;;;21.80;99.90;;;;;;5080187;28;20050;-67
2022/06/21 07:27:04;;;;;;;2.28;1.20;;;22.00;99.90;;;;;;5079414;28;20036;-67
2022/06/21 07:29:35;;;;;;;3.95;1.30;;;22.00;99.90;;;;;;5079757;28;20502;-67
2022/06/21 07:32:12;;;;;;;5.50;1.35;;;22.40;99.90;;;;;;5081359;28;20040;-67
2022/06/21 07:34:51;;;;;;;3.67;0.93;;;22.50;99.90;;;;;;5078827;28;20536;-67
2022/06/21 07:37:26;;;;;;;5.30;1.08;;;22.50;99.90;;;;;;5081025;28;20074;-67
2022/06/21 07:40:02;;;;;;;5.85;0.93;;;22.60;99.90;;;;;;5063794;28;20036;-67
2022/06/21 07:43:06;;;;;;;5.78;0.93;;;22.70;99.90;;;;;;5064369;28;20186;-67
2022/06/21 07:45:43;;;;;;;3.97;1.45;;;23.00;99.90;;;;;;5062036;28;20131;-67
2022/06/21 07:48:22;;;;;;;4.95;1.30;;;23.00;99.90;;;;;;5078715;28;20051;-66
2022/06/21 07:51:04;;;;;;;4.90;1.65;;;22.70;99.90;;;;;;5077833;28;20367;-67
2022/06/21 07:53:39;;;;;;;5.05;1.40;;;22.60;99.90;;;;;;5078397;28;20032;-67
2022/06/21 07:56:19;;;;;;;6.13;1.45;;;22.40;99.90;;;;;;5080882;28;20047;-67
2022/06/21 07:59:02;;;;;;;4.70;1.17;;;22.20;99.90;;;;;;5081092;28;20047;-67
2022/06/21 08:07:41;;;;;;;4.10;1.35;;;21.90;99.90;;;;;;5080675;28;20406;-67
2022/06/21 08:10:19;;;;;;;5.10;1.08;;;21.80;99.90;;;;;;5062250;28;20093;-66
2022/06/21 08:12:46;;;;;;;3.05;0.90;;;21.50;99.90;;;;;;5080704;28;20040;-67
2022/06/21 08:15:13;;;;;;;2.25;1.02;;;21.50;99.90;;;;;;5063134;28;20158;-67
2022/06/21 08:17:57;;;;;;;5.18;1.58;;;21.70;99.90;;;;;;5062614;28;20037;-66
2022/06/21 08:20:43;;;;;;;3.10;0.60;;;21.90;99.90;;;;;;5061479;28;20440;-67
2022/06/21 08:23:31;;;;;;;4.25;1.30;;;22.20;99.90;;;;;;5066642;28;20050;-66
2022/06/21 08:26:05;;;;;;;3.20;0.60;;;22.10;99.90;;;;;;5081690;28;20500;-66
2022/06/21 08:28:49;;;;;;;2.95;0.80;;;22.40;99.90;;;;;;5068855;28;20178;-66
2022/06/21 08:31:33;;;;;;;2.53;1.10;;;22.50;99.90;;;;;;5084021;28;20035;-66
2022/06/21 08:34:20;;;;;;;2.85;0.70;;;22.60;99.90;;;;;;5083700;28;20142;-66
2022/06/21 08:36:53;;;;;;;2.78;0.60;;;22.70;99.90;;;;;;5077754;28;20045;-67
2022/06/21 08:39:44;;;;;;;3.83;0.60;;;22.70;99.90;;;;;;5082656;28;20036;-66
2022/06/21 08:42:28;;;;;;;3.33;1.13;;;22.90;99.90;;;;;;5069652;28;20044;-66
2022/06/21 08:48:30;;;;;;;2.58;0.52;;;22.90;99.90;;;;;;5080969;28;20851;-66
2022/06/21 08:51:19;;;;;;;2.97;0.57;;;22.80;98.80;;;;;;5081840;28;20044;-66
2022/06/21 08:53:53;;;;;;;5.03;1.70;;;22.90;99.60;;;;;;5071740;28;20110;-66
2022/06/21 08:56:24;;;;;;;3.17;0.70;;;22.90;99.90;;;;;;5062335;28;20042;-66
2022/06/21 08:59:01;;;;;;;2.20;0.85;;;22.70;99.90;;;;;;5084946;28;20074;-66
2022/06/21 09:01:36;;;;;;;5.13;1.48;;;22.80;99.90;;;;;;5082739;28;20035;-67
2022/06/21 09:04:11;;;;;;;4.97;1.05;;;22.70;99.90;;;;;;5080830;28;20055;-67
2022/06/21 09:06:46;;;;;;;3.63;0.65;;;22.90;99.90;;;;;;5082823;28;20485;-66
2022/06/21 09:09:52;;;;;;;3.53;0.77;;;22.80;99.90;;;;;;5066253;28;20040;-66
2022/06/21 09:12:29;;;;;;;2.70;0.80;;;22.70;99.90;;;;;;5053046;28;20325;-67
2022/06/21 09:15:19;;;;;;;3.67;0.65;;;22.80;99.90;;;;;;5065554;28;20133;-67
2022/06/21 09:18:22;;;;;;;3.70;0.93;;;23.00;99.90;;;;;;5070801;28;20512;-66
2022/06/21 09:21:15;;;;;;;4.50;0.88;;;23.10;99.90;;;;;;5082805;28;20032;-66
2022/06/21 09:24:07;;;;;;;2.60;0.60;;;23.20;99.90;;;;;;5084117;28;20070;-67
2022/06/21 09:26:44;;;;;;;2.65;0.70;;;23.20;99.90;;;;;;5066089;28;20040;-66
2022/06/21 09:29:13;;;;;;;2.38;0.85;;;23.10;99.90;;;;;;5063207;28;20564;-66
2022/06/21 09:31:45;;;;;;;5.45;0.60;;;23.20;99.90;;;;;;5083038;28;20452;-66
2022/06/21 09:34:49;;;;;;;4.13;0.70;;;23.20;99.90;;;;;;5062436;28;20040;-66
2022/06/21 09:37:23;;;;;;;2.70;0.75;;;23.40;99.90;;;;;;5081504;28;20032;-66
2022/06/21 09:40:21;;;;;;;3.88;0.70;;;23.50;99.50;;;;;;5063539;28;20055;-66
2022/06/21 09:43:12;;;;;;;2.35;0.60;;;23.50;99.50;;;;;;5064801;28;20209;-66
2022/06/21 09:45:52;;;;;;;5.97;0.60;;;23.60;99.30;;;;;;5065385;28;20043;-67
2022/06/21 09:48:28;;;;;;;2.70;0.75;;;23.60;99.80;;;;;;5064650;28;20090;-67
2022/06/21 09:51:38;;;;;;;11.30;1.85;;;23.60;99.60;;;;;;5082858;28;20123;-67
2022/06/21 09:54:25;;;;;;;2.30;0.63;;;23.60;99.80;;;;;;5000322;28;20042;-67
2022/06/21 09:57:07;;;;;;;3.58;0.73;;;23.30;99.80;;;;;;5000407;28;20050;-67
2022/06/21 09:59:54;;;;;;;1.17;0.40;;;23.50;99.90;;;;;;5041482;28;20056;-67
2022/06/21 10:02:59;;;;;;;4.55;0.50;;;23.60;99.90;;;;;;5061933;28;20036;-67
2022/06/21 10:05:45;;;;;;;2.65;0.60;;;23.90;99.90;;;;;;5030761;28;20401;-66
2022/06/21 10:08:17;;;;;;;3.30;0.50;;;24.10;98.10;;;;;;5082399;28;20195;-65
2022/06/21 10:11:05;;;;;;;2.45;0.88;;;23.90;97.40;;;;;;5056670;28;20045;-67
2022/06/21 10:14:06;;;;;;;1.98;0.40;;;23.60;97.70;;;;;;5061971;28;20407;-67
2022/06/21 10:16:55;;;;;;;3.28;0.70;;;23.60;96.80;;;;;;5048448;28;20061;-67
2022/06/21 10:19:48;;;;;;;3.53;0.40;;;23.60;96.60;;;;;;5063857;28;20086;-67
2022/06/21 10:22:44;;;;;;;1.38;0.30;;;23.70;97.30;;;;;;5080160;28;20046;-67
2022/06/21 10:25:19;;;;;;;3.85;0.40;;;23.60;95.60;;;;;;5078736;28;20043;-67
2022/06/21 10:28:12;;;;;;;2.42;0.40;;;23.60;96.40;;;;;;5082546;28;20051;-67
2022/06/21 10:30:56;;;;;;;2.60;0.68;;;23.60;95.30;;;;;;5068487;28;20078;-66
2022/06/21 10:33:59;;;;;;;2.47;0.40;;;23.50;95.40;;;;;;5085014;28;20218;-66
2022/06/21 10:36:53;;;;;;;2.90;0.40;;;23.60;95.60;;;;;;5069359;28;20040;-66
2022/06/21 10:39:47;;;;;;;1.38;0.30;;;23.80;95.80;;;;;;5067313;28;20028;-66
2022/06/21 10:45:23;;;;;;;3.08;0.40;;;23.70;96.20;;;;;;5062536;28;20048;-66
2022/06/21 10:48:05;;;;;;;1.60;0.60;;;23.70;97.00;;;;;;5085098;28;21557;-66
2022/06/21 10:50:57;;;;;;;7.38;0.88;;;23.70;95.30;;;;;;5064174;28;20032;-66
2022/06/21 10:53:44;;;;;;;2.35;0.52;;;23.40;96.20;;;;;;5067308;28;20048;-66
2022/06/21 11:02:54;;;;;;;2.28;0.55;;;23.80;95.50;;;;;;5082208;28;20044;-66
2022/06/21 11:05:29;;;;;;;3.63;0.63;;;23.90;95.90;;;;;;5077852;28;20081;-66
2022/06/21 11:08:22;;;;;;;3.05;0.85;;;23.90;95.20;;;;;;5080796;28;20047;-66
2022/06/21 11:10:58;;;;;;;1.70;0.30;;;23.90;92.20;;;;;;5061281;28;20048;-66
2022/06/21 11:13:32;;;;;;;3.83;0.50;;;23.90;93.80;;;;;;5077727;28;20044;-66
2022/06/21 11:16:15;;;;;;;4.13;0.60;;;24.00;94.00;;;;;;5062039;28;20055;-66
2022/06/21 11:19:13;;;;;;;1.02;0.30;;;24.00;94.60;;;;;;5064925;28;20063;-66
2022/06/21 11:22:12;;;;;;;2.67;0.50;;;24.00;93.30;;;;;;5073993;28;20047;-66
2022/06/21 11:24:47;;;;;;;4.32;0.55;;;23.80;94.30;;;;;;5079869;28;20064;-66
2022/06/21 11:27:21;;;;;;;1.70;0.47;;;23.90;95.50;;;;;;5044298;28;20040;-66
2022/06/21 11:30:03;;;;;;;0.77;0.37;;;24.20;95.30;;;;;;5078221;28;20036;-66
2022/06/21 11:32:31;;;;;;;2.25;0.35;;;24.00;94.60;;;;;;5078113;28;20063;-66
2022/06/21 11:35:19;;;;;;;1.52;0.38;;;24.00;95.20;;;;;;5074948;28;20126;-66
2022/06/21 11:38:05;;;;;;;3.28;0.50;;;24.10;94.40;;;;;;5065642;28;20048;-66
2022/06/21 11:40:52;;;;;;;3.50;0.77;;;24.10;94.40;;;;;;5066865;28;20127;-66
2022/06/21 11:43:48;;;;;;;1.15;0.30;;;24.10;93.30;;;;;;5082242;28;20131;-66
2022/06/21 11:46:32;;;;;;;2.67;0.47;;;24.10;93.90;;;;;;5079141;28;20370;-66
2022/06/21 11:49:19;;;;;;;1.90;0.40;;;23.90;94.60;;;;;;5080306;28;20060;-66
2022/06/21 11:52:13;;;;;;;1.77;0.60;;;24.00;96.50;;;;;;5081200;28;20040;-66
2022/06/21 11:55:20;;;;;;;2.67;0.70;;;23.90;94.10;;;;;;5059973;28;20044;-66
2022/06/21 11:57:55;;;;;;;4.35;0.70;;;24.00;94.90;;;;;;5047431;28;20054;-66
2022/06/21 12:00:34;;;;;;;7.97;0.73;;;24.10;95.50;;;;;;5068059;28;20060;-66
2022/06/21 12:03:03;;;;;;;2.67;0.60;;;24.30;94.90;;;;;;5086284;28;20122;-66
2022/06/21 12:05:55;;;;;;;4.78;0.70;;;24.30;94.00;;;;;;5084793;28;20041;-66
2022/06/21 12:08:24;;;;;;;1.30;0.40;;;24.40;95.20;;;;;;5077239;28;20052;-66
2022/06/21 12:10:49;;;;;;;3.53;1.08;;;24.30;95.50;;;;;;5089049;28;20135;-66
2022/06/21 12:13:20;;;;;;;3.75;0.70;;;24.40;95.60;;;;;;5084535;28;20169;-66
2022/06/21 12:15:57;;;;;;;2.15;0.50;;;24.50;95.00;;;;;;5083144;28;20035;-66
2022/06/21 12:18:31;;;;;;;1.85;0.40;;;24.50;94.60;;;;;;5085384;28;20497;-66
2022/06/21 12:21:03;;;;;;;3.88;0.70;;;24.50;95.30;;;;;;5072683;28;20136;-66
2022/06/21 12:23:44;;;;;;;2.75;0.40;;;24.60;94.60;;;;;;5066679;28;20047;-66
2022/06/21 12:26:21;;;;;;;4.47;0.93;;;24.60;94.40;;;;;;5083545;28;20120;-66
2022/06/21 12:28:49;;;;;;;3.25;0.50;;;24.60;95.80;;;;;;5084603;28;20036;-66
2022/06/21 12:31:39;;;;;;;2.17;0.68;;;24.50;95.90;;;;;;5083487;28;20526;-66
2022/06/21 12:34:10;;;;;;;1.38;0.45;;;24.50;96.10;;;;;;5081536;28;20494;-66
2022/06/21 12:37:20;;;;;;;1.20;0.40;;;24.30;95.60;;;;;;5086161;28;20050;-66
2022/06/21 12:40:01;;;;;;;3.08;0.70;;;24.20;93.40;;;;;;5048706;28;20136;-66
2022/06/21 12:42:41;;;;;;;1.95;0.40;;;24.00;94.80;;;;;;5084745;28;20077;-66
2022/06/21 12:45:26;;;;;;;1.33;0.30;;;23.80;95.80;;;;;;5085056;28;20063;-66
2022/06/21 12:48:01;;;;;;;3.28;0.70;;;23.60;96.10;;;;;;5083084;28;20064;-66
2022/06/21 12:50:44;;;;;;;2.35;0.77;;;23.50;95.30;;;;;;5070765;28;20079;-65
2022/06/21 12:53:39;;;;;;;2.70;0.50;;;23.40;96.20;;;;;;5084561;28;20162;-66
2022/06/21 12:56:29;;;;;;;4.22;0.50;;;23.50;94.30;;;;;;5064543;28;20068;-66
2022/06/21 12:59:32;;;;;;;3.30;0.77;;;23.60;94.80;;;;;;5070627;28;20488;-66
2022/06/21 13:02:30;;;;;;;1.80;0.60;;;23.60;94.60;;;;;;5066339;28;20036;-66
2022/06/21 13:05:14;;;;;;;4.63;0.68;;;23.60;95.50;;;;;;5068229;28;20052;-66
2022/06/21 13:08:11;;;;;;;2.10;0.50;;;23.60;95.30;;;;;;5071678;28;20073;-66
2022/06/21 13:10:59;;;;;;;4.70;0.68;;;23.60;95.80;;;;;;5084503;28;20604;-66
2022/06/21 13:13:55;;;;;;;1.13;0.30;;;23.30;95.30;;;;;;5069930;28;20040;-66
2022/06/21 13:16:31;;;;;;;2.50;0.63;;;23.50;96.40;;;;;;5069918;28;20059;-66
2022/06/21 13:19:15;;;;;;;2.03;0.50;;;23.50;95.40;;;;;;5068736;28;20059;-66
2022/06/21 13:22:12;;;;;;;1.50;0.50;;;23.70;95.20;;;;;;5083285;28;20049;-66
2022/06/21 13:25:00;;;;;;;3.78;0.70;;;23.70;95.50;;;;;;5087160;28;20036;-66
2022/06/21 13:28:04;;;;;;;6.15;1.08;;;23.60;95.20;;;;;;5065697;28;20071;-66
2022/06/21 13:30:52;;;;;;;2.35;0.50;;;23.60;96.20;;;;;;5038496;28;20138;-66
2022/06/21 13:33:27;;;;;;;5.78;0.77;;;23.70;94.70;;;;;;5084424;28;20047;-66
2022/06/21 13:36:09;;;;;;;2.72;0.50;;;23.80;94.60;;;;;;5068367;28;20043;-66
2022/06/21 13:38:49;;;;;;;4.38;0.70;;;24.00;96.10;;;;;;5081372;28;20415;-67
2022/06/21 13:44:43;;;;;;;1.52;0.35;;;23.90;95.80;;;;;;5081651;28;20048;-66
2022/06/21 13:47:28;;;;;;;3.08;0.40;;;23.90;95.60;;;;;;5051998;28;20080;-66
2022/06/21 13:50:13;;;;;;;1.90;0.40;;;24.10;94.20;;;;;;5064535;28;20048;-66
2022/06/21 13:52:49;;;;;;;3.97;0.65;;;24.20;96.40;;;;;;5063951;28;20294;-66
2022/06/21 13:55:41;;;;;;;2.70;0.50;;;24.00;95.30;;;;;;5061592;28;20039;-66
2022/06/21 13:58:27;;;;;;;2.45;0.60;;;24.20;95.80;;;;;;5062798;28;20039;-66
2022/06/21 14:00:58;;;;;;;2.97;0.40;;;24.20;95.20;;;;;;5063350;28;20075;-66
2022/06/21 14:03:48;;;;;;;3.63;0.60;;;24.20;95.80;;;;;;5079362;28;20044;-67
2022/06/21 14:06:21;;;;;;;2.72;0.73;;;24.00;93.50;;;;;;5080414;28;20481;-66
2022/06/21 14:09:30;;;;;;;5.10;1.02;;;23.80;95.50;;;;;;5081933;28;20040;-66
2022/06/21 14:12:11;;;;;;;2.95;0.68;;;23.60;94.90;;;;;;5081654;28;20576;-66